Time;durP1;ratioP1;P1;durP2;ratioP2;P2;SDS_P1;SDS_P2;PMS_P1;PMS_P2;Temp;Humidity;BMP_temperature;BMP_pressure;BME280_temperature;BME280_humidity;BME280_pressure;Samples;Min_cycle;Max_cycle;Signal;HPM_P1;HPM_P2
2023/06/10 00:01:39;;;;;;;7.57;6.90;;;16.80;99.90;;;;;;5052617;28;20647;-82
2023/06/10 00:04:05;;;;;;;8.33;7.40;;;16.80;99.90;;;;;;5051994;28;20175;-79
2023/06/10 00:06:35;;;;;;;7.37;6.83;;;16.80;99.90;;;;;;5052353;28;20681;-78
2023/06/10 00:09:04;;;;;;;7.40;6.80;;;16.90;99.90;;;;;;5051942;28;20155;-78
2023/06/10 00:11:33;;;;;;;9.10;7.00;;;16.80;99.90;;;;;;5034333;28;20179;-79
2023/06/10 00:13:59;;;;;;;7.90;7.10;;;16.80;99.90;;;;;;5051702;28;20635;-79
2023/06/10 00:16:25;;;;;;;7.03;6.43;;;16.80;99.90;;;;;;5051940;28;20208;-80
2023/06/10 00:18:51;;;;;;;9.70;8.80;;;16.80;99.90;;;;;;5051901;28;20242;-79
2023/06/10 00:21:18;;;;;;;7.03;6.37;;;16.80;99.90;;;;;;5052112;28;20176;-80
2023/06/10 00:23:44;;;;;;;7.07;6.47;;;16.80;99.90;;;;;;5033905;28;20708;-79
2023/06/10 00:26:10;;;;;;;6.73;6.20;;;16.80;99.90;;;;;;5051964;28;20624;-81
2023/06/10 00:28:36;;;;;;;7.40;6.57;;;16.80;99.90;;;;;;5051299;28;20175;-79
2023/06/10 00:31:02;;;;;;;6.23;5.73;;;16.70;99.90;;;;;;5051888;28;20233;-82
2023/06/10 00:33:28;;;;;;;8.33;6.93;;;16.70;99.90;;;;;;5051820;28;20646;-79
2023/06/10 00:35:54;;;;;;;6.20;5.70;;;16.70;99.90;;;;;;5033621;28;20185;-82
2023/06/10 00:38:20;;;;;;;6.00;5.60;;;16.60;99.90;;;;;;5051992;28;20652;-78
2023/06/10 00:40:46;;;;;;;7.07;6.33;;;16.60;99.90;;;;;;5051876;28;20177;-81
2023/06/10 00:43:11;;;;;;;9.90;5.40;;;16.50;99.90;;;;;;5051368;28;20191;-80
2023/06/10 00:45:37;;;;;;;6.13;5.63;;;16.40;99.90;;;;;;5033349;28;20291;-80
2023/06/10 00:48:04;;;;;;;5.80;5.40;;;16.40;99.90;;;;;;5034037;28;20187;-79
2023/06/10 00:50:34;;;;;;;6.20;5.70;;;16.30;99.90;;;;;;5051636;28;20357;-82
2023/06/10 00:53:00;;;;;;;7.80;5.80;;;16.20;99.90;;;;;;5034018;28;20722;-79
2023/06/10 00:55:27;;;;;;;6.60;6.00;;;16.20;99.90;;;;;;5051640;28;20172;-80
2023/06/10 00:57:54;;;;;;;6.40;5.77;;;16.20;99.90;;;;;;5051896;28;20199;-80
2023/06/10 01:00:20;;;;;;;6.67;6.07;;;16.20;99.90;;;;;;5051740;28;20183;-78
2023/06/10 01:02:46;;;;;;;6.33;5.83;;;16.20;99.90;;;;;;5051798;28;20267;-79
2023/06/10 01:05:12;;;;;;;5.70;5.20;;;16.20;99.90;;;;;;5051308;28;20566;-82
2023/06/10 01:08:10;;;;;;;5.97;5.47;;;16.20;99.90;;;;;;5051799;28;20178;-78
2023/06/10 01:10:46;;;;;;;6.30;5.70;;;16.20;99.90;;;;;;5066438;28;20167;-79
2023/06/10 01:13:15;;;;;;;5.80;5.30;;;16.20;99.90;;;;;;5074309;28;20195;-80
2023/06/10 01:15:41;;;;;;;5.60;5.10;;;16.20;99.90;;;;;;5075213;28;20200;-80
2023/06/10 01:18:09;;;;;;;5.13;4.73;;;16.20;99.90;;;;;;5059005;28;20187;-80
2023/06/10 01:20:42;;;;;;;5.40;5.00;;;16.20;99.90;;;;;;5076233;28;20238;-80
2023/06/10 01:23:10;;;;;;;5.83;5.20;;;16.20;99.90;;;;;;5074972;28;20168;-82
2023/06/10 01:25:51;;;;;;;6.03;5.53;;;16.10;99.90;;;;;;5074529;28;20259;-79
2023/06/10 01:28:22;;;;;;;5.50;5.10;;;16.10;99.90;;;;;;5071775;28;20183;-79
2023/06/10 01:31:13;;;;;;;6.27;5.77;;;16.10;99.90;;;;;;5056444;28;20227;-80
2023/06/10 01:33:43;;;;;;;6.47;5.80;;;16.10;99.90;;;;;;5055063;28;20171;-79
2023/06/10 01:36:09;;;;;;;6.33;5.80;;;16.10;99.90;;;;;;5054954;28;20272;-81
2023/06/10 01:38:47;;;;;;;6.33;5.83;;;16.00;99.90;;;;;;5055073;28;20187;-78
2023/06/10 01:41:15;;;;;;;6.40;5.50;;;16.00;99.90;;;;;;5059794;28;20235;-81
2023/06/10 01:43:43;;;;;;;5.63;5.23;;;16.00;99.90;;;;;;5062126;28;20522;-81
2023/06/10 01:46:10;;;;;;;6.00;5.60;;;16.00;99.90;;;;;;5038300;28;20195;-80
2023/06/10 01:48:37;;;;;;;5.97;5.40;;;16.00;99.90;;;;;;5060446;28;20171;-79
2023/06/10 01:51:03;;;;;;;5.93;5.50;;;16.00;99.90;;;;;;5056571;28;20223;-79
2023/06/10 01:53:29;;;;;;;5.77;5.30;;;16.00;99.90;;;;;;5054792;28;20194;-80
2023/06/10 01:55:55;;;;;;;6.07;5.57;;;16.00;99.90;;;;;;5054790;28;20954;-80
2023/06/10 01:58:20;;;;;;;6.90;6.07;;;15.90;99.90;;;;;;5054851;28;20172;-79
2023/06/10 02:00:46;;;;;;;6.43;5.83;;;16.00;99.90;;;;;;5054780;28;20195;-77
2023/06/10 02:03:12;;;;;;;12.00;6.00;;;16.00;99.90;;;;;;5054540;28;20176;-78
2023/06/10 02:05:38;;;;;;;6.43;5.93;;;16.00;99.90;;;;;;5054483;28;20535;-80
2023/06/10 02:08:04;;;;;;;6.83;6.13;;;16.10;99.90;;;;;;5054634;28;20175;-79
2023/06/10 02:10:29;;;;;;;6.00;5.50;;;16.00;99.90;;;;;;5054691;28;20517;-78
2023/06/10 02:12:55;;;;;;;6.30;5.80;;;16.00;99.90;;;;;;5053830;28;20559;-79
2023/06/10 02:15:21;;;;;;;6.40;5.83;;;16.00;99.90;;;;;;5053671;28;20188;-79
2023/06/10 02:17:48;;;;;;;6.40;5.80;;;15.90;99.90;;;;;;5053770;28;20290;-77
2023/06/10 02:20:14;;;;;;;6.83;6.20;;;15.90;99.90;;;;;;5054228;28;20178;-79
2023/06/10 02:22:40;;;;;;;6.63;6.07;;;15.90;99.90;;;;;;5053802;28;20542;-78
2023/06/10 02:25:07;;;;;;;7.63;6.13;;;16.00;99.90;;;;;;5053975;28;20231;-83
2023/06/10 02:27:32;;;;;;;7.63;6.33;;;16.00;99.90;;;;;;5053820;28;20230;-80
2023/06/10 02:29:58;;;;;;;6.90;6.30;;;16.00;99.90;;;;;;5036086;28;20174;-79
2023/06/10 02:32:25;;;;;;;6.50;5.90;;;15.90;99.90;;;;;;5053566;28;20186;-79
2023/06/10 02:34:51;;;;;;;6.27;5.73;;;15.90;99.90;;;;;;5035926;28;20184;-80
2023/06/10 02:37:17;;;;;;;6.80;6.10;;;15.90;99.90;;;;;;5053774;28;20674;-79
2023/06/10 02:39:43;;;;;;;6.83;6.23;;;15.90;99.90;;;;;;5053980;28;20183;-78
2023/06/10 02:42:08;;;;;;;5.87;5.43;;;15.80;99.90;;;;;;5053418;28;20177;-80
2023/06/10 02:44:34;;;;;;;8.37;6.00;;;15.70;99.90;;;;;;5053258;28;20547;-78
2023/06/10 02:47:00;;;;;;;6.13;5.57;;;15.70;99.90;;;;;;5035516;28;20187;-77
2023/06/10 02:49:29;;;;;;;6.00;5.47;;;15.80;99.90;;;;;;5053834;28;20176;-80
2023/06/10 02:51:56;;;;;;;6.53;5.93;;;15.70;99.90;;;;;;5035299;28;20285;-79
2023/06/10 02:54:22;;;;;;;6.23;5.63;;;15.70;99.90;;;;;;5053333;28;20160;-79
2023/06/10 02:56:48;;;;;;;5.83;5.37;;;15.70;99.90;;;;;;5053132;28;20207;-79
2023/06/10 02:59:14;;;;;;;6.17;5.53;;;15.70;99.90;;;;;;5053158;28;20213;-79
2023/06/10 03:01:41;;;;;;;5.67;5.27;;;15.60;99.90;;;;;;5053214;28;20177;-79
2023/06/10 03:04:07;;;;;;;5.80;5.37;;;15.60;99.90;;;;;;5053123;28;20168;-81
2023/06/10 03:06:33;;;;;;;5.53;5.03;;;15.70;99.90;;;;;;5052803;28;20269;-79
2023/06/10 03:09:07;;;;;;;4.87;4.57;;;15.70;99.90;;;;;;5053304;28;20199;-80
2023/06/10 03:11:33;;;;;;;5.57;5.07;;;15.70;99.90;;;;;;5053264;28;20249;-82
2023/06/10 03:13:58;;;;;;;4.80;4.47;;;15.70;99.90;;;;;;5053079;28;20659;-79
2023/06/10 03:16:25;;;;;;;5.40;4.90;;;15.70;99.90;;;;;;5052977;28;20199;-78
2023/06/10 03:18:51;;;;;;;5.63;4.63;;;15.60;99.90;;;;;;5053088;28;20640;-78
2023/06/10 03:21:17;;;;;;;4.80;4.43;;;15.60;99.90;;;;;;5053025;28;20222;-78
2023/06/10 03:23:43;;;;;;;5.17;4.73;;;15.60;99.90;;;;;;5035072;28;20597;-80
2023/06/10 03:26:09;;;;;;;5.43;5.00;;;15.70;99.90;;;;;;5053110;28;20177;-76
2023/06/10 03:28:36;;;;;;;5.67;5.17;;;15.70;99.90;;;;;;5052731;28;20176;-78
2023/06/10 03:31:02;;;;;;;5.23;4.47;;;15.70;99.90;;;;;;5055082;28;20610;-78
2023/06/10 03:33:27;;;;;;;4.70;4.40;;;15.80;99.90;;;;;;5052842;28;20168;-78
2023/06/10 03:35:53;;;;;;;5.10;4.70;;;15.80;99.90;;;;;;5052747;28;20693;-77
2023/06/10 03:38:19;;;;;;;6.23;4.77;;;15.80;99.90;;;;;;5052990;28;20276;-77
2023/06/10 03:40:45;;;;;;;4.70;4.40;;;15.80;99.90;;;;;;5052939;28;20562;-80
2023/06/10 03:43:10;;;;;;;4.87;4.57;;;15.90;99.90;;;;;;5053055;28;20531;-78
2023/06/10 03:45:36;;;;;;;5.67;5.27;;;15.90;99.90;;;;;;5052642;28;20635;-79
2023/06/10 03:48:03;;;;;;;5.40;4.90;;;15.90;99.90;;;;;;5052719;28;20582;-80
2023/06/10 03:50:29;;;;;;;5.07;4.67;;;15.90;99.90;;;;;;5052576;28;20228;-80
2023/06/10 03:52:55;;;;;;;5.50;5.00;;;15.90;99.90;;;;;;5052405;28;20230;-80
2023/06/10 03:55:21;;;;;;;5.10;4.70;;;16.00;99.90;;;;;;5051774;28;20206;-81
2023/06/10 03:57:48;;;;;;;4.40;4.10;;;16.00;99.90;;;;;;5051803;28;20238;-81
2023/06/10 04:00:15;;;;;;;5.27;4.87;;;16.00;99.90;;;;;;5052236;28;20172;-81
2023/06/10 04:02:45;;;;;;;5.10;4.70;;;16.00;99.90;;;;;;5051492;28;20168;-82
2023/06/10 04:05:15;;;;;;;5.23;4.73;;;16.00;99.90;;;;;;5052572;28;20164;-81
2023/06/10 04:07:42;;;;;;;5.70;4.80;;;16.00;99.90;;;;;;5052621;28;20181;-81
2023/06/10 04:10:09;;;;;;;5.23;4.77;;;15.90;99.90;;;;;;5052126;28;20180;-83
2023/06/10 04:12:36;;;;;;;5.10;4.80;;;15.90;99.90;;;;;;5052020;28;20639;-79
2023/06/10 04:15:02;;;;;;;4.80;4.40;;;15.90;99.90;;;;;;5052247;28;20209;-77
2023/06/10 04:17:28;;;;;;;5.27;4.80;;;16.00;99.90;;;;;;5051801;28;20204;-80
2023/06/10 04:19:54;;;;;;;4.87;4.43;;;16.00;99.90;;;;;;5051531;28;20175;-80
2023/06/10 04:22:20;;;;;;;5.43;4.90;;;16.00;99.90;;;;;;5051908;28;20171;-78
2023/06/10 04:24:46;;;;;;;5.30;4.90;;;15.90;99.90;;;;;;5051962;28;20267;-78
2023/06/10 04:27:12;;;;;;;5.00;4.60;;;16.00;99.90;;;;;;5052268;28;20186;-80
2023/06/10 04:29:38;;;;;;;5.40;5.00;;;16.10;99.90;;;;;;5052090;28;20275;-79
2023/06/10 04:32:05;;;;;;;7.60;5.47;;;16.20;99.90;;;;;;5052405;28;20263;-78
2023/06/10 04:34:31;;;;;;;5.23;4.73;;;16.30;99.90;;;;;;5051584;28;20199;-78
2023/06/10 04:36:57;;;;;;;5.10;4.70;;;16.30;99.90;;;;;;5051108;28;20630;-79
2023/06/10 04:39:22;;;;;;;5.23;4.83;;;16.30;99.90;;;;;;5033655;28;20175;-79
2023/06/10 04:41:49;;;;;;;5.67;5.07;;;16.30;99.90;;;;;;5051912;28;20182;-79
2023/06/10 04:44:15;;;;;;;5.70;5.20;;;16.40;99.90;;;;;;5051853;28;20679;-81
2023/06/10 04:46:41;;;;;;;5.70;5.20;;;16.40;99.90;;;;;;5051937;28;20262;-80
2023/06/10 04:49:07;;;;;;;5.87;5.37;;;16.50;99.90;;;;;;5051719;28;20257;-79
2023/06/10 04:51:34;;;;;;;5.70;5.30;;;16.60;99.90;;;;;;5051634;28;20245;-79
2023/06/10 04:54:03;;;;;;;6.00;5.50;;;16.60;99.90;;;;;;5033895;28;20186;-76
2023/06/10 04:56:30;;;;;;;7.60;5.43;;;16.70;99.90;;;;;;5051756;28;20261;-78
2023/06/10 04:58:56;;;;;;;5.77;5.20;;;16.70;99.90;;;;;;5051910;28;20594;-79
2023/06/10 05:01:22;;;;;;;6.03;5.43;;;16.80;99.90;;;;;;5052042;28;20306;-80
2023/06/10 05:03:48;;;;;;;5.57;5.17;;;16.80;99.90;;;;;;5033652;28;20671;-80
2023/06/10 05:06:14;;;;;;;5.80;5.20;;;16.80;99.90;;;;;;5051807;28;20175;-81
2023/06/10 05:08:40;;;;;;;6.17;5.60;;;16.90;99.90;;;;;;5051444;28;20528;-79
2023/06/10 05:11:06;;;;;;;6.43;5.83;;;17.00;99.90;;;;;;5051595;28;20180;-80
2023/06/10 05:13:32;;;;;;;6.30;5.73;;;17.00;99.90;;;;;;5051604;28;20173;-78
2023/06/10 05:15:58;;;;;;;6.47;5.90;;;17.00;99.90;;;;;;5055215;28;20212;-80
2023/06/10 05:18:24;;;;;;;5.97;5.47;;;17.10;99.90;;;;;;5055477;28;20276;-79
2023/06/10 05:20:50;;;;;;;6.03;5.53;;;17.10;99.90;;;;;;5057321;28;20228;-79
2023/06/10 05:23:15;;;;;;;5.63;5.13;;;17.20;99.90;;;;;;5055493;28;20183;-80
2023/06/10 05:25:42;;;;;;;6.33;5.40;;;17.30;99.90;;;;;;5055028;28;20191;-82
2023/06/10 05:28:11;;;;;;;5.67;5.27;;;17.50;99.90;;;;;;5055334;28;20633;-80
2023/06/10 05:30:37;;;;;;;5.80;5.40;;;17.60;99.90;;;;;;5054987;28;20193;-80
2023/06/10 05:33:03;;;;;;;6.13;5.50;;;17.60;99.90;;;;;;5055350;28;20644;-78
2023/06/10 05:35:29;;;;;;;6.03;5.53;;;17.50;99.90;;;;;;5037178;28;20179;-78
2023/06/10 05:37:55;;;;;;;5.83;5.33;;;17.60;99.90;;;;;;5037422;28;20208;-79
2023/06/10 05:40:21;;;;;;;5.40;4.90;;;17.70;99.90;;;;;;5054793;28;20164;-80
2023/06/10 05:42:46;;;;;;;5.40;5.00;;;17.70;99.90;;;;;;5055168;28;20171;-78
2023/06/10 05:45:12;;;;;;;5.90;5.40;;;17.80;99.90;;;;;;5054875;28;20168;-80
2023/06/10 05:47:38;;;;;;;6.00;5.50;;;17.90;99.90;;;;;;5055183;28;20538;-81
2023/06/10 05:50:08;;;;;;;5.63;4.70;;;17.90;99.90;;;;;;5055174;28;20164;-80
2023/06/10 05:52:35;;;;;;;5.53;5.13;;;18.00;99.90;;;;;;5055314;28;20630;-79
2023/06/10 05:55:01;;;;;;;5.90;5.40;;;18.00;99.90;;;;;;5054711;28;20182;-80
2023/06/10 05:57:26;;;;;;;5.83;5.43;;;18.10;99.90;;;;;;5054337;28;20208;-78
2023/06/10 05:59:52;;;;;;;5.40;5.00;;;18.10;99.90;;;;;;5054674;28;20244;-79
2023/06/10 06:02:18;;;;;;;6.00;5.50;;;18.20;99.90;;;;;;5055218;28;20266;-77
2023/06/10 06:04:44;;;;;;;7.03;5.23;;;18.10;99.90;;;;;;5054610;28;20591;-78
2023/06/10 06:07:09;;;;;;;6.13;5.50;;;18.10;99.90;;;;;;5054646;28;20175;-80
2023/06/10 06:09:35;;;;;;;5.63;5.23;;;18.00;99.90;;;;;;5054047;28;20617;-78
2023/06/10 06:12:01;;;;;;;6.10;5.63;;;18.00;99.90;;;;;;5054633;28;20184;-81
2023/06/10 06:14:31;;;;;;;5.80;5.40;;;18.10;99.90;;;;;;5053485;28;20632;-79
2023/06/10 06:16:56;;;;;;;6.33;5.83;;;18.10;99.90;;;;;;5054208;28;20215;-80
2023/06/10 06:19:22;;;;;;;6.13;5.63;;;18.10;99.90;;;;;;5053965;28;20175;-79
2023/06/10 06:21:48;;;;;;;5.30;4.90;;;18.20;99.90;;;;;;5054187;28;20172;-81
2023/06/10 06:24:15;;;;;;;5.30;4.90;;;18.20;99.90;;;;;;5054010;28;20635;-79
2023/06/10 06:26:41;;;;;;;5.57;5.17;;;18.40;99.90;;;;;;5052384;28;20191;-80
2023/06/10 06:29:07;;;;;;;5.70;5.30;;;18.50;99.90;;;;;;5053866;28;20172;-79
2023/06/10 06:31:32;;;;;;;5.97;5.37;;;18.60;99.90;;;;;;5053943;28;20168;-81
2023/06/10 06:33:58;;;;;;;4.90;4.60;;;18.60;99.90;;;;;;5053155;28;20646;-81
2023/06/10 06:36:24;;;;;;;5.00;4.70;;;18.60;99.90;;;;;;5053824;28;20293;-79
2023/06/10 06:38:49;;;;;;;5.37;4.97;;;18.60;99.90;;;;;;5053996;28;20172;-80
2023/06/10 06:41:15;;;;;;;6.10;5.50;;;18.60;99.90;;;;;;5053496;28;20180;-77
2023/06/10 06:43:42;;;;;;;6.27;5.20;;;18.80;99.90;;;;;;5053739;28;20183;-78
2023/06/10 06:46:08;;;;;;;5.10;4.80;;;18.90;99.90;;;;;;5053684;28;20197;-77
2023/06/10 06:48:35;;;;;;;5.90;5.40;;;19.00;99.90;;;;;;5053699;28;20631;-77
2023/06/10 06:51:00;;;;;;;5.47;5.07;;;19.10;99.90;;;;;;5053298;28;20255;-78
2023/06/10 06:53:26;;;;;;;6.00;5.40;;;19.10;99.90;;;;;;5053825;28;20199;-79
2023/06/10 06:55:52;;;;;;;6.80;5.53;;;19.20;99.90;;;;;;5053327;28;20219;-77
2023/06/10 06:58:18;;;;;;;5.60;5.20;;;19.30;99.90;;;;;;5053393;28;20211;-77
2023/06/10 07:00:43;;;;;;;5.70;5.30;;;19.40;99.90;;;;;;5053663;28;20181;-80
2023/06/10 07:03:11;;;;;;;5.30;4.90;;;19.60;99.90;;;;;;5053692;28;20253;-77
2023/06/10 07:05:37;;;;;;;6.23;5.63;;;19.70;99.90;;;;;;5052926;28;20497;-78
2023/06/10 07:08:03;;;;;;;6.17;5.67;;;19.80;99.90;;;;;;5053471;28;20180;-83
2023/06/10 07:10:29;;;;;;;6.13;5.30;;;19.80;99.90;;;;;;5035048;28;20506;-81
2023/06/10 07:12:55;;;;;;;5.93;5.53;;;19.80;99.90;;;;;;5053858;28;20172;-79
2023/06/10 07:15:21;;;;;;;6.53;5.73;;;19.90;99.90;;;;;;5053378;28;20172;-78
2023/06/10 07:17:47;;;;;;;5.90;5.40;;;20.00;99.90;;;;;;5053401;28;20210;-79
2023/06/10 07:20:14;;;;;;;6.20;5.60;;;19.80;99.90;;;;;;5053190;28;20545;-78
2023/06/10 07:22:41;;;;;;;6.17;5.67;;;19.90;99.90;;;;;;5053021;28;20171;-79
2023/06/10 07:25:07;;;;;;;5.90;5.40;;;19.90;99.90;;;;;;5052940;28;20179;-80
2023/06/10 07:27:32;;;;;;;5.70;5.30;;;19.90;99.90;;;;;;5053216;28;20508;-81
2023/06/10 07:30:01;;;;;;;5.37;4.97;;;20.00;99.90;;;;;;5053392;28;20179;-79
2023/06/10 07:32:27;;;;;;;5.50;5.10;;;20.10;99.90;;;;;;5052676;28;20196;-77
2023/06/10 07:34:52;;;;;;;5.80;5.23;;;20.10;99.90;;;;;;5052098;28;20196;-76
2023/06/10 07:37:19;;;;;;;5.50;4.93;;;20.10;99.90;;;;;;5052583;28;20286;-76
2023/06/10 07:39:45;;;;;;;6.83;5.17;;;20.20;99.90;;;;;;5053834;28;20534;-77
2023/06/10 07:42:11;;;;;;;5.57;5.17;;;20.30;99.90;;;;;;5052151;28;20176;-81
2023/06/10 07:44:37;;;;;;;5.50;5.00;;;20.30;99.90;;;;;;5049304;28;20180;-82
2023/06/10 07:47:03;;;;;;;5.60;5.20;;;20.30;99.90;;;;;;5052271;28;20182;-82
2023/06/10 07:49:28;;;;;;;6.10;5.60;;;20.40;99.90;;;;;;5053036;28;20246;-80
2023/06/10 07:51:55;;;;;;;6.07;5.57;;;20.40;99.90;;;;;;5052238;28;20231;-78
2023/06/10 07:54:21;;;;;;;6.17;5.67;;;20.20;99.90;;;;;;5051628;28;20221;-78
2023/06/10 07:56:47;;;;;;;6.17;5.73;;;20.20;99.90;;;;;;5051791;28;20208;-78
2023/06/10 07:59:14;;;;;;;5.97;4.73;;;20.20;99.90;;;;;;5051924;28;20255;-78
2023/06/10 08:01:40;;;;;;;6.20;5.70;;;20.30;99.90;;;;;;5051976;28;20180;-80
2023/06/10 08:04:06;;;;;;;5.57;5.17;;;20.50;99.90;;;;;;5052216;28;20848;-78
2023/06/10 08:06:32;;;;;;;5.40;5.00;;;21.50;99.90;;;;;;5051622;28;20285;-81
2023/06/10 08:08:58;;;;;;;5.87;5.37;;;20.80;99.90;;;;;;5052119;28;20175;-79
2023/06/10 08:11:23;;;;;;;5.30;5.00;;;20.90;99.90;;;;;;5051887;28;20555;-82
2023/06/10 08:13:49;;;;;;;5.33;4.93;;;21.10;99.90;;;;;;5051806;28;20911;-81
2023/06/10 08:16:16;;;;;;;5.30;4.90;;;21.20;99.90;;;;;;5051738;28;20290;-81
2023/06/10 08:18:42;;;;;;;5.90;5.40;;;21.40;99.90;;;;;;5034418;28;20183;-79
2023/06/10 08:21:08;;;;;;;5.10;4.80;;;21.50;99.90;;;;;;5051934;28;20172;-79
2023/06/10 08:23:33;;;;;;;5.13;4.83;;;21.60;99.90;;;;;;5051882;28;20620;-80
2023/06/10 08:25:59;;;;;;;5.40;5.00;;;21.70;99.90;;;;;;5033880;28;20184;-81
2023/06/10 08:28:25;;;;;;;4.77;4.47;;;21.80;99.90;;;;;;5052124;28;20218;-80
2023/06/10 08:30:50;;;;;;;5.23;4.73;;;21.90;99.90;;;;;;5052072;28;20180;-79
2023/06/10 08:33:16;;;;;;;5.87;5.47;;;22.00;99.90;;;;;;5051962;28;20631;-80
2023/06/10 08:35:42;;;;;;;5.30;4.83;;;21.90;99.90;;;;;;5051889;28;20182;-80
2023/06/10 08:38:07;;;;;;;5.17;4.87;;;21.80;99.90;;;;;;5051829;28;20214;-82
2023/06/10 08:40:33;;;;;;;5.27;4.77;;;21.80;99.90;;;;;;5051856;28;20174;-82
2023/06/10 08:43:25;;;;;;;5.17;4.87;;;21.80;99.90;;;;;;5051680;28;20574;-81
2023/06/10 08:45:55;;;;;;;5.00;4.70;;;22.00;99.90;;;;;;5051753;28;20259;-83
2023/06/10 08:48:22;;;;;;;5.50;5.00;;;22.00;99.90;;;;;;5050740;28;20249;-79
2023/06/10 08:50:50;;;;;;;5.43;5.03;;;22.20;99.90;;;;;;5055002;28;20223;-80
2023/06/10 08:53:18;;;;;;;4.87;4.57;;;22.30;99.90;;;;;;5055512;28;20183;-81
2023/06/10 08:55:51;;;;;;;5.07;4.78;;;22.30;99.90;;;;;;5055957;28;20172;-81
2023/06/10 08:58:19;;;;;;;4.60;4.30;;;22.50;99.90;;;;;;5053075;28;20203;-80
2023/06/10 09:00:45;;;;;;;5.63;5.23;;;22.40;99.90;;;;;;5055844;28;20186;-82
2023/06/10 09:03:11;;;;;;;5.37;4.97;;;22.50;99.90;;;;;;5055761;28;20168;-81
2023/06/10 09:05:39;;;;;;;5.90;5.40;;;22.50;99.90;;;;;;5056243;28;20180;-83
2023/06/10 09:08:07;;;;;;;5.40;5.00;;;22.50;99.90;;;;;;5055668;28;20166;-84
2023/06/10 09:10:33;;;;;;;6.22;5.70;;;22.50;99.90;;;;;;5055813;28;20255;-78
2023/06/10 09:12:59;;;;;;;5.53;5.13;;;22.30;99.90;;;;;;5055548;28;20171;-79
2023/06/10 09:15:25;;;;;;;5.33;4.90;;;22.30;99.90;;;;;;5037670;28;20233;-79
2023/06/10 09:17:51;;;;;;;5.40;5.00;;;22.60;99.90;;;;;;5055722;28;20211;-83
2023/06/10 09:20:18;;;;;;;5.43;5.03;;;22.70;99.90;;;;;;5055460;28;20172;-78
2023/06/10 09:22:44;;;;;;;5.95;5.45;;;22.70;99.90;;;;;;5055596;28;20203;-80
2023/06/10 09:25:13;;;;;;;5.82;5.43;;;22.60;99.90;;;;;;5055850;28;20209;-79
2023/06/10 09:27:49;;;;;;;5.30;4.90;;;22.30;99.90;;;;;;5070633;28;20176;-80
2023/06/10 09:30:29;;;;;;;5.30;4.90;;;22.40;99.90;;;;;;5059483;28;20550;-79
2023/06/10 09:32:56;;;;;;;6.67;6.07;;;22.40;99.90;;;;;;5055936;28;20214;-78
2023/06/10 09:35:26;;;;;;;5.57;5.17;;;22.40;99.90;;;;;;5067603;28;20163;-79
2023/06/10 09:37:54;;;;;;;5.57;5.17;;;22.40;99.90;;;;;;5080801;28;20188;-80
2023/06/10 09:40:20;;;;;;;6.03;5.53;;;22.50;99.90;;;;;;5080749;28;20144;-80
2023/06/10 09:42:48;;;;;;;6.17;5.67;;;22.70;99.90;;;;;;5080469;28;20192;-80
2023/06/10 09:45:14;;;;;;;6.03;5.53;;;22.70;99.90;;;;;;5080183;28;20148;-79
2023/06/10 09:47:40;;;;;;;5.70;5.30;;;22.70;99.90;;;;;;5081241;28;20178;-81
2023/06/10 09:50:06;;;;;;;5.65;5.25;;;22.70;99.90;;;;;;5072936;28;20172;-80
2023/06/10 09:52:32;;;;;;;6.15;5.70;;;22.70;99.90;;;;;;5057798;28;20208;-80
2023/06/10 09:55:02;;;;;;;6.60;6.00;;;22.80;99.90;;;;;;5057061;28;20176;-80
2023/06/10 09:57:35;;;;;;;7.47;6.72;;;22.90;99.90;;;;;;5056904;28;20247;-79
2023/06/10 10:00:06;;;;;;;7.50;6.60;;;23.00;99.90;;;;;;5058535;28;20612;-81
2023/06/10 10:02:32;;;;;;;5.75;5.28;;;22.90;99.90;;;;;;5055701;28;20168;-81
2023/06/10 10:05:04;;;;;;;5.75;5.35;;;23.10;99.90;;;;;;5054672;28;20701;-79
2023/06/10 10:07:30;;;;;;;6.18;5.68;;;23.00;99.90;;;;;;5054740;28;20179;-79
2023/06/10 10:09:56;;;;;;;6.22;5.75;;;22.80;99.90;;;;;;5055075;28;20164;-80
2023/06/10 10:12:23;;;;;;;6.63;5.85;;;22.50;99.90;;;;;;5054612;28;20249;-80
2023/06/10 10:14:50;;;;;;;7.72;5.78;;;22.50;99.90;;;;;;5054411;28;20627;-78
2023/06/10 10:17:16;;;;;;;6.10;5.70;;;22.70;99.90;;;;;;5054598;28;20607;-80
2023/06/10 10:19:57;;;;;;;7.55;6.88;;;22.20;99.90;;;;;;5054384;28;20168;-79
2023/06/10 10:22:30;;;;;;;6.17;5.67;;;22.20;99.90;;;;;;5054153;28;20223;-75
2023/06/10 10:25:00;;;;;;;6.10;5.60;;;22.50;99.90;;;;;;5053906;28;20700;-79
2023/06/10 10:27:33;;;;;;;7.22;6.50;;;22.70;99.90;;;;;;5054198;28;20190;-81
2023/06/10 10:30:01;;;;;;;6.40;5.93;;;22.50;99.90;;;;;;5054183;28;20156;-79
2023/06/10 10:32:38;;;;;;;6.72;6.07;;;22.80;99.90;;;;;;5054031;28;20172;-84
2023/06/10 10:35:19;;;;;;;5.75;5.35;;;22.70;99.90;;;;;;5053891;28;20250;-83
2023/06/10 10:37:45;;;;;;;6.20;5.80;;;22.90;99.90;;;;;;5054052;28;20203;-80
2023/06/10 10:40:12;;;;;;;5.68;5.30;;;23.00;99.90;;;;;;5036986;28;20218;-82
2023/06/10 10:42:39;;;;;;;6.57;6.07;;;23.30;99.90;;;;;;5053992;28;20180;-82
2023/06/10 10:45:06;;;;;;;5.72;5.32;;;23.20;99.90;;;;;;5052909;28;20255;-83
2023/06/10 10:47:35;;;;;;;6.18;5.75;;;23.10;99.90;;;;;;5051691;28;20179;-82
2023/06/10 10:50:01;;;;;;;5.97;5.38;;;23.10;99.90;;;;;;5053346;28;20172;-79
2023/06/10 10:52:28;;;;;;;6.15;5.55;;;23.30;99.90;;;;;;5054756;28;20180;-82
2023/06/10 10:54:54;;;;;;;6.22;5.25;;;23.50;99.90;;;;;;5054539;28;20213;-81
2023/06/10 10:57:23;;;;;;;6.10;5.70;;;23.70;99.90;;;;;;5053301;28;20204;-78
2023/06/10 10:59:48;;;;;;;5.25;4.85;;;23.80;99.90;;;;;;5053124;28;20698;-79
2023/06/10 11:02:18;;;;;;;5.22;4.90;;;23.90;99.90;;;;;;5053418;28;20183;-79
2023/06/10 11:04:48;;;;;;;5.72;5.32;;;24.20;99.90;;;;;;5053558;28;20171;-80
2023/06/10 11:07:20;;;;;;;5.63;5.20;;;24.20;99.90;;;;;;5053272;28;20183;-78
2023/06/10 11:10:10;;;;;;;6.43;5.93;;;24.30;99.90;;;;;;5034827;28;20175;-78
2023/06/10 11:12:42;;;;;;;5.10;4.70;;;24.00;99.90;;;;;;5052379;28;20175;-76
2023/06/10 11:15:08;;;;;;;5.50;5.13;;;23.90;99.90;;;;;;5053254;28;20594;-77
2023/06/10 11:17:34;;;;;;;5.20;4.80;;;23.80;99.90;;;;;;5053178;28;20246;-81
2023/06/10 11:20:00;;;;;;;5.00;4.70;;;23.60;99.90;;;;;;5052486;28;20203;-82
2023/06/10 11:22:25;;;;;;;5.47;5.00;;;23.90;99.90;;;;;;5053159;28;20172;-79
2023/06/10 11:24:51;;;;;;;5.88;5.47;;;24.20;99.90;;;;;;5052867;28;20247;-79
2023/06/10 11:27:22;;;;;;;5.40;5.10;;;24.40;99.90;;;;;;5053153;28;20172;-82
2023/06/10 11:30:01;;;;;;;5.50;5.00;;;24.20;99.90;;;;;;5052552;28;20195;-78
2023/06/10 11:32:31;;;;;;;5.53;5.13;;;24.20;99.90;;;;;;5052758;28;20171;-79
2023/06/10 11:34:57;;;;;;;5.45;5.05;;;24.40;99.90;;;;;;5052616;28;20527;-77
2023/06/10 11:37:23;;;;;;;5.00;4.70;;;24.50;99.90;;;;;;5052742;28;20204;-79
2023/06/10 11:39:56;;;;;;;5.15;4.85;;;24.60;99.90;;;;;;5052307;28;20172;-80
2023/06/10 11:42:22;;;;;;;5.13;4.82;;;24.70;99.90;;;;;;5052633;28;20662;-78
2023/06/10 11:44:53;;;;;;;5.30;4.90;;;24.60;99.90;;;;;;5052806;28;20627;-78
2023/06/10 11:47:20;;;;;;;5.65;5.32;;;24.60;99.90;;;;;;5052416;28;20218;-80
2023/06/10 11:49:55;;;;;;;5.00;4.70;;;24.70;99.90;;;;;;5034442;28;20613;-81
2023/06/10 11:52:32;;;;;;;4.65;4.32;;;24.70;99.90;;;;;;5052721;28;20233;-81
2023/06/10 11:54:57;;;;;;;4.82;4.50;;;24.60;99.90;;;;;;5052408;28;20266;-81
2023/06/10 11:57:23;;;;;;;5.40;5.00;;;24.90;99.90;;;;;;5052261;28;20290;-79
2023/06/10 11:59:49;;;;;;;4.93;4.63;;;24.90;99.90;;;;;;5051890;28;20595;-79
2023/06/10 12:02:16;;;;;;;5.38;4.60;;;24.60;99.90;;;;;;5051243;28;20860;-80
2023/06/10 12:04:42;;;;;;;4.80;4.50;;;24.60;99.90;;;;;;5052295;28;20658;-80
2023/06/10 12:07:07;;;;;;;4.10;3.90;;;24.60;99.90;;;;;;5052230;28;20203;-83
2023/06/10 12:09:33;;;;;;;4.50;4.30;;;24.40;99.90;;;;;;5051792;28;20575;-80
2023/06/10 12:12:01;;;;;;;5.25;4.85;;;24.50;99.90;;;;;;5051792;28;20191;-82
2023/06/10 12:14:56;;;;;;;4.70;4.40;;;24.70;99.90;;;;;;5052114;28;20631;-82
2023/06/10 12:17:23;;;;;;;6.25;5.45;;;24.60;99.90;;;;;;5052098;28;20214;-84
2023/06/10 12:19:50;;;;;;;4.68;4.38;;;24.60;99.90;;;;;;5051595;28;20259;-80
2023/06/10 12:22:16;;;;;;;4.47;4.18;;;24.60;99.90;;;;;;5051920;28;20634;-82
2023/06/10 12:25:02;;;;;;;4.72;4.43;;;24.30;99.90;;;;;;5049103;28;20206;-81
2023/06/10 12:27:30;;;;;;;4.53;4.22;;;24.10;99.90;;;;;;5052102;28;20164;-78
2023/06/10 12:30:03;;;;;;;4.53;4.15;;;24.20;99.90;;;;;;5055104;28;20173;-79
2023/06/10 12:32:38;;;;;;;108.97;32.78;;;23.90;99.90;;;;;;5052490;28;20191;-79
2023/06/10 12:35:07;;;;;;;43.65;14.50;;;24.40;99.90;;;;;;5051908;28;20172;-81
2023/06/10 12:37:39;;;;;;;5.05;4.63;;;24.90;99.90;;;;;;5051544;28;20559;-77
2023/06/10 12:40:06;;;;;;;5.53;5.00;;;25.10;99.90;;;;;;5051447;28;20184;-78
2023/06/10 12:42:35;;;;;;;4.43;4.05;;;25.00;99.90;;;;;;5051659;28;20168;-79
2023/06/10 12:45:01;;;;;;;16.20;8.52;;;25.10;99.90;;;;;;5051838;28;20178;-81
2023/06/10 12:47:32;;;;;;;4.40;4.10;;;24.80;99.90;;;;;;5051821;28;20183;-78